createdAt,value
2023-01-26T00:01:15.873Z,35.88
2023-01-26T00:03:43.093Z,35.25
2023-01-26T00:06:11.767Z,34.75
2023-01-26T00:08:43.418Z,33.88
2023-01-26T00:11:12.184Z,36.38
2023-01-26T00:13:39.018Z,32.70
2023-01-26T00:16:09.157Z,34.60
2023-01-26T00:18:37.625Z,36.28
2023-01-26T00:21:04.650Z,34.65
2023-01-26T00:23:33.128Z,35.17
2023-01-26T00:26:00.097Z,34.95
2023-01-26T00:28:28.105Z,34.95
2023-01-26T00:31:00.117Z,35.17
2023-01-26T00:33:26.740Z,37.88
2023-01-26T00:35:56.493Z,33.67
2023-01-26T00:38:23.146Z,34.17
2023-01-26T00:40:49.746Z,35.85
2023-01-26T00:43:16.561Z,40.80
2023-01-26T00:45:43.842Z,35.10
2023-01-26T00:48:10.493Z,36.85
2023-01-26T00:50:37.051Z,38.45
2023-01-26T00:53:03.705Z,35.40
2023-01-26T00:55:33.027Z,36.28
2023-01-26T00:58:03.894Z,33.47
2023-01-26T01:00:31.311Z,33.35
2023-01-26T01:02:58.890Z,32.57
2023-01-26T01:05:27.462Z,36.78
2023-01-26T01:07:54.158Z,37.45
2023-01-26T01:10:20.788Z,34.75
2023-01-26T01:12:47.352Z,33.88
2023-01-26T01:15:13.980Z,33.10
2023-01-26T01:17:40.610Z,37.00
2023-01-26T01:20:10.535Z,34.40
2023-01-26T01:22:37.466Z,35.45
2023-01-26T01:25:04.915Z,33.50
2023-01-26T01:27:31.651Z,34.03
2023-01-26T01:29:58.487Z,36.78
2023-01-26T01:32:25.143Z,36.50
2023-01-26T01:34:51.731Z,36.15
2023-01-26T01:37:18.553Z,33.63
2023-01-26T01:39:45.211Z,34.08
2023-01-26T01:42:11.792Z,36.20
2023-01-26T01:44:38.732Z,34.92
2023-01-26T01:47:18.509Z,36.45
2023-01-26T01:49:48.353Z,36.40
2023-01-26T01:52:29.904Z,36.00
2023-01-26T01:55:08.286Z,35.08
2023-01-26T01:57:45.091Z,34.63
2023-01-26T02:00:19.089Z,34.85
2023-01-26T02:03:07.094Z,36.88
2023-01-26T02:08:02.004Z,32.53
2023-01-26T02:10:29.047Z,32.33
2023-01-26T02:12:56.828Z,35.97
2023-01-26T02:15:23.614Z,35.85
2023-01-26T02:17:52.558Z,37.25
2023-01-26T02:20:19.107Z,35.95
2023-01-26T02:23:26.687Z,34.20
2023-01-26T02:25:53.425Z,35.22
2023-01-26T02:28:22.806Z,34.00
2023-01-26T02:30:49.893Z,33.80
2023-01-26T02:33:28.453Z,35.80
2023-01-26T02:35:55.451Z,37.15
2023-01-26T02:38:22.991Z,38.78
2023-01-26T02:41:03.516Z,36.17
2023-01-26T02:43:30.289Z,34.38
2023-01-26T02:45:56.934Z,37.05
2023-01-26T02:48:42.127Z,37.28
2023-01-26T02:51:08.708Z,35.08
2023-01-26T02:53:35.273Z,37.33
2023-01-26T02:56:02.030Z,36.45
2023-01-26T02:58:28.901Z,39.05
2023-01-26T03:00:55.532Z,38.33
2023-01-26T03:03:41.691Z,37.58
2023-01-26T03:06:13.155Z,37.80
2023-01-26T03:08:40.025Z,39.38
2023-01-26T03:11:07.972Z,37.03
2023-01-26T03:13:35.223Z,37.53
2023-01-26T03:16:07.069Z,37.33
2023-01-26T03:18:53.481Z,36.72
2023-01-26T03:21:38.827Z,37.75
2023-01-26T03:24:24.564Z,40.03
2023-01-26T03:27:09.689Z,39.42
2023-01-26T03:29:36.315Z,38.38
2023-01-26T03:32:02.978Z,38.67
2023-01-26T03:34:29.703Z,38.53
2023-01-26T03:36:56.369Z,40.53
2023-01-26T03:39:41.237Z,36.95
2023-01-26T03:42:26.128Z,40.28
2023-01-26T03:45:11.348Z,36.75
2023-01-26T03:47:57.699Z,36.85
2023-01-26T03:50:43.053Z,38.65
2023-01-26T03:53:36.562Z,38.40
2023-01-26T03:56:23.266Z,39.10
2023-01-26T03:58:55.361Z,38.45
2023-01-26T04:01:28.162Z,38.03
2023-01-26T04:04:15.540Z,37.20
2023-01-26T04:07:02.179Z,38.55
2023-01-26T04:09:28.946Z,36.60
2023-01-26T04:11:55.660Z,39.85
2023-01-26T04:14:50.045Z,36.78
2023-01-26T04:17:37.311Z,32.05
2023-01-26T04:20:24.708Z,35.22
2023-01-26T04:22:51.574Z,35.42
2023-01-26T04:25:20.412Z,35.15
2023-01-26T04:27:47.058Z,34.65
2023-01-26T04:30:15.964Z,32.75
2023-01-26T04:32:42.679Z,35.33
2023-01-26T04:35:10.218Z,34.42
2023-01-26T04:37:37.241Z,33.72
2023-01-26T04:40:04.464Z,34.67
2023-01-26T04:42:31.115Z,32.15
2023-01-26T04:44:57.752Z,32.92
2023-01-26T04:47:24.404Z,34.95
2023-01-26T04:49:50.962Z,33.78
2023-01-26T04:52:17.529Z,35.40
2023-01-26T04:54:44.102Z,33.15
2023-01-26T04:57:11.353Z,34.15
2023-01-26T04:59:38.210Z,33.88
2023-01-26T05:02:04.885Z,33.70
2023-01-26T05:04:31.849Z,36.63
2023-01-26T05:06:58.561Z,34.38
2023-01-26T05:09:25.122Z,34.75
2023-01-26T05:11:51.715Z,36.90
2023-01-26T05:14:18.255Z,34.15
2023-01-26T05:16:44.880Z,34.92
2023-01-26T05:19:11.557Z,35.30
2023-01-26T05:21:38.090Z,33.00
2023-01-26T05:24:04.938Z,33.55
2023-01-26T05:26:31.539Z,32.25
2023-01-26T05:28:58.134Z,35.88
2023-01-26T05:31:24.909Z,34.50
2023-01-26T05:33:51.494Z,34.15
2023-01-26T05:36:18.048Z,33.10
2023-01-26T05:38:44.619Z,34.85
2023-01-26T05:41:11.168Z,35.55
2023-01-26T05:43:37.719Z,32.63
2023-01-26T05:46:04.425Z,33.17
2023-01-26T05:48:31.011Z,32.75
2023-01-26T05:50:58.186Z,35.08
2023-01-26T05:53:24.867Z,32.03
2023-01-26T05:55:51.519Z,32.17
2023-01-26T05:58:18.112Z,32.70
2023-01-26T06:00:44.691Z,33.53
2023-01-26T06:03:11.277Z,30.73
2023-01-26T06:05:38.908Z,31.55
2023-01-26T06:08:05.832Z,32.10
2023-01-26T06:10:32.411Z,30.75
2023-01-26T06:13:00.374Z,32.47
2023-01-26T06:15:26.988Z,29.67
2023-01-26T06:17:53.566Z,30.00
2023-01-26T06:20:20.161Z,31.83
2023-01-26T06:22:46.750Z,31.00
2023-01-26T06:25:13.336Z,31.65
2023-01-26T06:27:42.456Z,30.92
2023-01-26T06:30:10.711Z,28.42
2023-01-26T06:35:08.398Z,30.38
2023-01-26T06:37:35.294Z,30.02
2023-01-26T06:40:01.943Z,29.15
2023-01-26T06:42:28.543Z,33.30
2023-01-26T06:44:57.477Z,31.63
2023-01-26T06:47:24.125Z,30.17
2023-01-26T06:49:50.786Z,30.52
2023-01-26T06:52:31.159Z,31.05
2023-01-26T06:54:59.189Z,27.95
2023-01-26T06:57:25.995Z,30.02
2023-01-26T06:59:52.623Z,29.58
2023-01-26T07:02:20.775Z,29.88
2023-01-26T07:04:48.222Z,29.10
2023-01-26T07:07:15.163Z,32.50
2023-01-26T07:09:41.831Z,32.25
2023-01-26T07:12:08.416Z,30.13
2023-01-26T07:14:35.112Z,29.50
2023-01-26T07:17:02.655Z,27.73
2023-01-26T07:19:31.354Z,25.90
2023-01-26T07:21:58.111Z,31.00
2023-01-26T07:24:25.215Z,30.45
2023-01-26T07:26:52.252Z,28.98
2023-01-26T07:29:18.906Z,29.75
2023-01-26T07:31:45.825Z,29.23
2023-01-26T07:34:12.896Z,29.98
2023-01-26T07:36:39.576Z,28.48
2023-01-26T07:39:08.345Z,27.33
2023-01-26T07:41:35.507Z,27.55
2023-01-26T07:44:02.207Z,27.25
2023-01-26T07:46:28.960Z,30.17
2023-01-26T07:48:57.382Z,29.20
2023-01-26T07:51:24.004Z,27.90
2023-01-26T07:53:50.600Z,27.15
2023-01-26T07:56:20.289Z,28.40
2023-01-26T07:58:51.533Z,28.40
2023-01-26T08:01:18.679Z,26.55
2023-01-26T08:03:45.649Z,29.45
2023-01-26T08:06:14.359Z,26.45
2023-01-26T08:08:43.143Z,28.15
2023-01-26T08:11:11.152Z,29.55
2023-01-26T08:13:38.326Z,28.20
2023-01-26T08:16:09.362Z,28.67
2023-01-26T08:18:36.108Z,27.83
2023-01-26T08:21:02.722Z,28.73
2023-01-26T08:23:29.373Z,26.70
2023-01-26T08:26:00.364Z,25.33
2023-01-26T08:28:26.946Z,28.77
2023-01-26T08:30:53.617Z,27.23
2023-01-26T08:33:20.209Z,25.95
2023-01-26T08:35:46.795Z,26.70
2023-01-26T08:38:13.377Z,26.20
2023-01-26T08:40:40.015Z,25.83
2023-01-26T08:43:06.726Z,24.23
2023-01-26T08:45:33.404Z,25.65
2023-01-26T08:48:00.166Z,24.73
2023-01-26T08:50:26.771Z,24.02
2023-01-26T08:52:55.925Z,23.08
2023-01-26T08:55:22.740Z,22.33
2023-01-26T08:57:52.559Z,22.38
2023-01-26T09:00:19.413Z,21.63
2023-01-26T09:02:46.145Z,21.50
2023-01-26T09:05:12.949Z,23.27
2023-01-26T09:07:39.532Z,22.08
2023-01-26T09:10:10.871Z,23.20
2023-01-26T09:12:40.126Z,20.88
2023-01-26T09:15:08.649Z,20.98
2023-01-26T09:17:35.490Z,20.60
2023-01-26T09:20:02.156Z,20.50
2023-01-26T09:22:28.777Z,21.52
2023-01-26T09:24:55.372Z,21.40
2023-01-26T09:27:21.976Z,19.17
2023-01-26T09:29:48.556Z,21.02
2023-01-26T09:32:15.295Z,19.73
2023-01-26T09:34:44.158Z,18.33
2023-01-26T09:37:12.054Z,17.38
2023-01-26T09:39:38.690Z,18.30
2023-01-26T09:42:46.064Z,18.65
2023-01-26T09:45:13.008Z,18.90
2023-01-26T09:48:04.505Z,18.23
2023-01-26T09:50:37.834Z,15.20
2023-01-26T09:53:11.093Z,15.48
2023-01-26T09:55:37.967Z,15.82
2023-01-26T09:58:14.555Z,14.65
2023-01-26T10:00:51.737Z,15.63
2023-01-26T10:03:53.794Z,15.32
2023-01-26T10:06:31.305Z,15.48
2023-01-26T10:09:01.675Z,15.15
2023-01-26T10:11:38.322Z,15.27
2023-01-26T10:14:14.269Z,14.20
2023-01-26T10:16:44.093Z,15.10
2023-01-26T10:19:21.983Z,15.85
2023-01-26T10:21:51.433Z,15.15
2023-01-26T10:24:22.235Z,15.10
2023-01-26T10:26:50.664Z,15.55
2023-01-26T10:31:44.701Z,13.40
2023-01-26T10:34:17.949Z,14.67
2023-01-26T10:36:46.103Z,15.30
2023-01-26T10:39:16.972Z,13.82
2023-01-26T10:42:00.998Z,13.23
2023-01-26T10:44:38.820Z,13.75
2023-01-26T10:47:19.852Z,13.73
2023-01-26T10:49:46.557Z,14.65
2023-01-26T10:52:22.163Z,15.40
2023-01-26T10:54:49.750Z,13.95
2023-01-26T10:57:29.331Z,13.55
2023-01-26T11:00:00.964Z,12.93
2023-01-26T11:02:29.541Z,14.48
2023-01-26T11:05:09.428Z,13.13
2023-01-26T11:07:38.685Z,14.38
2023-01-26T11:10:26.886Z,13.20
2023-01-26T11:13:17.763Z,12.50
2023-01-26T11:15:48.610Z,12.25
2023-01-26T11:18:37.990Z,12.55
2023-01-26T11:21:18.966Z,10.95
2023-01-26T11:23:51.649Z,10.65
2023-01-26T11:26:30.713Z,11.07
2023-01-26T11:28:59.988Z,10.52
2023-01-26T11:31:33.015Z,10.73
2023-01-26T11:34:20.999Z,11.85
2023-01-26T11:37:07.907Z,10.60
2023-01-26T11:40:15.935Z,10.85
2023-01-26T11:43:13.577Z,10.13
2023-01-26T11:45:46.358Z,10.07
2023-01-26T11:48:38.986Z,11.38
2023-01-26T11:51:24.525Z,11.02
2023-01-26T11:54:12.907Z,11.52
2023-01-26T11:56:50.050Z,9.55
2023-01-26T11:59:25.456Z,9.70
2023-01-26T12:02:05.229Z,11.13
2023-01-26T12:04:34.192Z,11.65
2023-01-26T12:07:13.252Z,11.27
2023-01-26T12:09:43.595Z,12.90
2023-01-26T12:12:40.359Z,12.02
2023-01-26T12:15:19.586Z,13.25
2023-01-26T12:18:09.848Z,10.40
2023-01-26T12:20:41.619Z,9.80
2023-01-26T12:23:08.116Z,9.73
2023-01-26T12:25:35.946Z,11.45
2023-01-26T12:28:10.831Z,10.20
2023-01-26T12:30:48.998Z,9.93
2023-01-26T12:33:16.026Z,10.15
2023-01-26T12:36:00.029Z,10.40
2023-01-26T12:38:38.897Z,9.75
2023-01-26T12:41:34.809Z,9.35
2023-01-26T12:44:38.650Z,9.57
2023-01-26T12:47:19.931Z,9.32
2023-01-26T12:49:50.514Z,8.85
2023-01-26T12:52:22.398Z,7.40
2023-01-26T12:55:04.079Z,8.00
2023-01-26T12:57:38.981Z,7.88
2023-01-26T13:00:17.572Z,7.88
2023-01-26T13:02:47.207Z,7.32
2023-01-26T13:05:54.509Z,6.85
2023-01-26T13:08:30.239Z,6.22
2023-01-26T13:11:01.138Z,6.07
2023-01-26T13:13:29.926Z,5.50
2023-01-26T13:16:15.578Z,6.30
2023-01-26T13:18:49.112Z,5.88
2023-01-26T13:21:29.210Z,5.47
2023-01-26T13:23:55.973Z,5.53
2023-01-26T13:26:26.063Z,5.70
2023-01-26T13:28:53.542Z,6.18
2023-01-26T13:31:40.436Z,5.97
2023-01-26T13:34:08.889Z,5.85
2023-01-26T13:36:37.237Z,7.25
2023-01-26T13:39:13.096Z,7.00
2023-01-26T13:41:47.600Z,7.10
2023-01-26T13:44:24.103Z,6.43
2023-01-26T13:47:00.346Z,6.75
2023-01-26T13:49:45.101Z,6.97
2023-01-26T13:52:30.028Z,6.53
2023-01-26T13:55:00.377Z,7.57
2023-01-26T13:57:29.227Z,7.43
2023-01-26T13:59:57.493Z,6.97
2023-01-26T14:02:25.653Z,7.13
2023-01-26T14:04:58.086Z,6.90
2023-01-26T14:07:44.936Z,7.07
2023-01-26T14:10:22.789Z,8.25
2023-01-26T14:12:52.444Z,7.63
2023-01-26T14:15:29.719Z,8.38
2023-01-26T14:17:59.235Z,7.18
2023-01-26T14:20:27.291Z,8.15
2023-01-26T14:23:23.451Z,8.60
2023-01-26T14:26:26.006Z,6.85
2023-01-26T14:28:52.587Z,7.53
2023-01-26T14:31:22.269Z,7.93
2023-01-26T14:33:55.976Z,7.43
2023-01-26T14:36:22.957Z,9.18
2023-01-26T14:38:51.888Z,9.93
2023-01-26T14:41:33.702Z,8.68
2023-01-26T14:44:05.960Z,8.35
2023-01-26T14:46:50.907Z,8.93
2023-01-26T14:49:43.567Z,8.30
2023-01-26T14:52:21.273Z,7.32
2023-01-26T14:54:50.076Z,8.25
2023-01-26T14:57:18.950Z,8.82
2023-01-26T14:59:48.662Z,8.25
2023-01-26T15:02:24.437Z,8.85
2023-01-26T15:05:01.440Z,7.68
2023-01-26T15:07:33.329Z,10.52
2023-01-26T15:10:00.246Z,11.38
2023-01-26T15:12:27.454Z,9.98
2023-01-26T15:15:01.072Z,10.07
2023-01-26T15:17:30.542Z,10.65
2023-01-26T15:19:57.157Z,10.10
2023-01-26T15:22:25.756Z,9.77
2023-01-26T15:25:26.293Z,9.45
2023-01-26T15:27:58.278Z,10.02
2023-01-26T15:30:29.169Z,8.95
2023-01-26T15:32:55.939Z,8.93
2023-01-26T15:35:30.344Z,8.38
2023-01-26T15:38:11.714Z,10.63
2023-01-26T15:40:38.798Z,10.85
2023-01-26T15:43:16.407Z,8.77
2023-01-26T15:45:54.493Z,8.85
2023-01-26T15:48:21.970Z,9.40
2023-01-26T15:50:48.791Z,8.55
2023-01-26T15:53:17.038Z,8.05
2023-01-26T15:55:44.390Z,9.23
2023-01-26T15:58:11.306Z,8.63
2023-01-26T16:00:38.928Z,9.35
2023-01-26T16:03:12.220Z,8.75
2023-01-26T16:05:38.786Z,9.48
2023-01-26T16:08:05.512Z,9.27
2023-01-26T16:10:32.055Z,8.48
2023-01-26T16:12:58.622Z,8.27
2023-01-26T16:15:51.511Z,9.40
2023-01-26T16:18:19.453Z,9.20
2023-01-26T16:20:48.100Z,9.27
2023-01-26T16:23:22.913Z,10.00
2023-01-26T16:25:50.085Z,8.88
2023-01-26T16:28:17.261Z,8.23
2023-01-26T16:30:45.060Z,8.20
2023-01-26T16:33:16.519Z,7.07
2023-01-26T16:35:43.598Z,7.47
2023-01-26T16:38:13.226Z,9.32
2023-01-26T16:40:44.958Z,9.65
2023-01-26T16:43:24.131Z,12.45
2023-01-26T16:45:51.949Z,10.23
2023-01-26T16:48:18.561Z,9.07
2023-01-26T16:50:45.584Z,8.07
2023-01-26T16:53:19.230Z,9.70
2023-01-26T16:55:45.847Z,8.02
2023-01-26T16:58:12.485Z,10.18
2023-01-26T17:00:39.252Z,9.55
2023-01-26T17:03:06.591Z,10.88
2023-01-26T17:05:33.236Z,10.52
2023-01-26T17:07:59.785Z,10.02
2023-01-26T17:10:26.381Z,10.82
2023-01-26T17:12:53.059Z,15.02
2023-01-26T17:15:19.724Z,15.27
2023-01-26T17:17:49.136Z,13.23
2023-01-26T17:20:19.786Z,15.40
2023-01-26T17:22:47.408Z,14.05
2023-01-26T17:25:16.789Z,12.98
2023-01-26T17:27:44.910Z,12.57
2023-01-26T17:30:12.060Z,12.05
2023-01-26T17:32:38.661Z,13.07
2023-01-26T17:35:05.557Z,13.65
2023-01-26T17:37:32.156Z,13.23
2023-01-26T17:39:58.723Z,10.75
2023-01-26T17:42:25.841Z,13.00
2023-01-26T17:44:52.581Z,14.85
2023-01-26T17:47:19.153Z,13.88
2023-01-26T17:49:45.764Z,11.55
2023-01-26T17:52:14.372Z,11.93
2023-01-26T17:54:41.276Z,11.57
2023-01-26T17:57:08.503Z,11.10
2023-01-26T17:59:35.203Z,12.98
2023-01-26T18:02:01.970Z,11.23
2023-01-26T18:04:31.171Z,11.32
2023-01-26T18:06:58.121Z,11.07
2023-01-26T18:09:25.064Z,10.68
2023-01-26T18:11:51.624Z,10.55
2023-01-26T18:14:18.298Z,11.70
2023-01-26T18:16:44.974Z,12.73
2023-01-26T18:19:11.673Z,9.38
2023-01-26T18:21:38.432Z,9.63
2023-01-26T18:24:05.961Z,11.32
2023-01-26T18:26:37.077Z,11.37
2023-01-26T18:29:05.152Z,10.27
2023-01-26T18:31:34.469Z,10.30
2023-01-26T18:34:03.195Z,10.40
2023-01-26T18:36:30.590Z,11.95
2023-01-26T18:38:59.898Z,11.55
2023-01-26T18:41:27.701Z,10.43
2023-01-26T18:43:57.979Z,10.43
2023-01-26T18:46:27.295Z,8.82
2023-01-26T18:48:54.889Z,10.32
2023-01-26T18:51:22.645Z,10.33
2023-01-26T18:53:49.530Z,7.53
2023-01-26T18:56:17.018Z,7.88
2023-01-26T18:58:44.094Z,8.05
2023-01-26T19:01:13.205Z,37.95
2023-01-26T19:03:48.671Z,14.25
2023-01-26T19:06:19.717Z,11.80
2023-01-26T19:08:48.143Z,10.07
2023-01-26T19:13:43.293Z,10.18
2023-01-26T19:16:10.172Z,8.13
2023-01-26T19:18:36.914Z,8.45
2023-01-26T19:21:04.599Z,7.88
2023-01-26T19:23:32.249Z,8.50
2023-01-26T19:26:00.288Z,8.30
2023-01-26T19:28:26.890Z,7.28
2023-01-26T19:31:02.337Z,8.00
2023-01-26T19:33:29.170Z,7.43
2023-01-26T19:35:56.619Z,8.60
2023-01-26T19:38:23.651Z,7.57
2023-01-26T19:40:51.724Z,7.80
2023-01-26T19:43:19.172Z,8.18
2023-01-26T19:45:49.832Z,7.25
2023-01-26T19:48:16.671Z,7.45
2023-01-26T19:50:43.306Z,6.43
2023-01-26T19:53:10.005Z,6.25
2023-01-26T19:55:36.805Z,6.93
2023-01-26T19:58:03.374Z,5.60
2023-01-26T20:00:29.909Z,5.93
2023-01-26T20:02:56.455Z,5.65
2023-01-26T20:05:23.038Z,5.70
2023-01-26T20:07:49.633Z,5.78
2023-01-26T20:10:16.643Z,5.47
2023-01-26T20:12:43.236Z,6.38
2023-01-26T20:15:10.732Z,6.57
2023-01-26T20:17:37.456Z,6.45
2023-01-26T20:20:04.504Z,6.60
2023-01-26T20:22:33.617Z,5.75
2023-01-26T20:25:00.817Z,5.57
2023-01-26T20:27:29.314Z,5.13
2023-01-26T20:29:56.227Z,5.03
2023-01-26T20:32:22.995Z,4.55
2023-01-26T20:34:49.845Z,4.80
2023-01-26T20:37:16.448Z,4.90
2023-01-26T20:39:46.001Z,4.45
2023-01-26T20:42:16.594Z,4.10
2023-01-26T20:44:43.529Z,4.20
2023-01-26T20:47:10.258Z,4.65
2023-01-26T20:49:37.427Z,4.07
2023-01-26T20:52:07.875Z,4.63
2023-01-26T20:54:35.742Z,5.25
2023-01-26T20:57:03.735Z,4.90
2023-01-26T20:59:30.485Z,4.65
2023-01-26T21:01:57.287Z,4.93
2023-01-26T21:04:24.014Z,5.00
2023-01-26T21:06:50.670Z,4.78
2023-01-26T21:09:17.391Z,5.28
2023-01-26T21:11:44.022Z,4.82
2023-01-26T21:14:12.251Z,4.70
2023-01-26T21:16:38.971Z,5.07
2023-01-26T21:19:06.035Z,5.30
2023-01-26T21:21:32.635Z,6.28
2023-01-26T21:23:59.328Z,5.95
2023-01-26T21:26:27.886Z,6.70
2023-01-26T21:28:59.738Z,7.63
2023-01-26T21:31:29.059Z,8.13
2023-01-26T21:33:56.248Z,9.63
2023-01-26T21:36:25.222Z,9.65
2023-01-26T21:38:53.173Z,10.18
2023-01-26T21:41:43.293Z,9.95
2023-01-26T21:44:10.915Z,10.98
2023-01-26T21:46:37.858Z,13.27
2023-01-26T21:49:04.817Z,12.48
2023-01-26T21:51:49.869Z,13.20
2023-01-26T21:54:17.023Z,12.38
2023-01-26T21:56:43.771Z,12.77
2023-01-26T21:59:14.688Z,12.48
2023-01-26T22:01:49.678Z,13.30
2023-01-26T22:04:22.764Z,13.02
2023-01-26T22:06:49.675Z,13.98
2023-01-26T22:09:17.368Z,13.80
2023-01-26T22:11:44.412Z,14.63
2023-01-26T22:14:16.438Z,14.45
2023-01-26T22:16:43.153Z,14.15
2023-01-26T22:19:10.842Z,13.57
2023-01-26T22:21:38.270Z,14.23
2023-01-26T22:24:05.720Z,12.80
2023-01-26T22:26:32.459Z,12.90
2023-01-26T22:28:59.694Z,13.38
2023-01-26T22:31:28.261Z,12.68
2023-01-26T22:33:57.667Z,13.68
2023-01-26T22:36:25.466Z,15.05
2023-01-26T22:38:52.839Z,14.70
2023-01-26T22:41:24.310Z,13.88
2023-01-26T22:43:54.313Z,14.93
2023-01-26T22:46:23.636Z,15.63
2023-01-26T22:48:50.979Z,13.93
2023-01-26T22:51:20.364Z,14.05
2023-01-26T22:53:49.105Z,12.80
2023-01-26T22:56:16.193Z,13.35
2023-01-26T22:58:57.032Z,13.43
2023-01-26T23:01:25.742Z,13.25
2023-01-26T23:03:53.868Z,13.17
2023-01-26T23:06:20.851Z,12.32
2023-01-26T23:08:47.497Z,12.70
2023-01-26T23:11:15.120Z,13.75
2023-01-26T23:13:43.226Z,14.70
2023-01-26T23:16:10.431Z,13.68
2023-01-26T23:18:37.393Z,13.55
2023-01-26T23:21:04.567Z,13.10
2023-01-26T23:23:31.240Z,12.57
2023-01-26T23:25:58.714Z,12.80
2023-01-26T23:28:29.094Z,12.65
2023-01-26T23:30:56.720Z,11.48
2023-01-26T23:33:25.332Z,11.68
2023-01-26T23:35:52.342Z,12.02
2023-01-26T23:38:21.297Z,13.07
2023-01-26T23:40:48.897Z,11.68
2023-01-26T23:43:17.360Z,11.68
2023-01-26T23:45:44.938Z,11.93
2023-01-26T23:48:12.070Z,12.55
2023-01-26T23:50:38.959Z,12.65
2023-01-26T23:53:05.627Z,12.98
2023-01-26T23:55:32.249Z,12.98
2023-01-26T23:57:58.868Z,13.23
